BER6ME EDDF-LIMF
Flight info
| Callsign | BER6ME |
|---|---|
| Flight time | N/A |
| Altitude | 30000 |
| Route | ANEKI2L/18 ANEKI Y163 NATOR DCT DITON DCT BASGO DCT AKASU DCT NELAB |
| Aircraft | B738/M-SDE2E3FGHIRWXY/LB1 |
Departure
| Time | 2026-05-04 15:11 |
|---|---|
| Airport | Frankfurt Main Airport (EDDF) |
Arrival
| Time | N/A |
|---|---|
| Airport | Turin Airport (LIMF) |
| Time | Latitude | Longitude | Altitude | Speed | Heading |
|---|---|---|---|---|---|
| 2026-05-04 14:41 | 50.04800 | 8.56921 | 355 ft | 0 kts | 294° |
| 2026-05-04 14:52 | 50.04801 | 8.56921 | 355 ft | 0 kts | 294° |
| 2026-05-04 14:54 | 50.04799 | 8.56928 | 355 ft | 3 kts | 294° |
| 2026-05-04 14:55 | 50.04788 | 8.56966 | 358 ft | 3 kts | 295° |
| 2026-05-04 14:55 | 50.04780 | 8.56997 | 357 ft | 4 kts | 273° |
| 2026-05-04 14:55 | 50.04788 | 8.57028 | 362 ft | 4 kts | 213° |
| 2026-05-04 14:55 | 50.04791 | 8.57033 | 361 ft | 4 kts | 204° |
| 2026-05-04 14:56 | 50.04772 | 8.57019 | 362 ft | 0 kts | 205° |
| 2026-05-04 14:59 | 50.04767 | 8.57015 | 360 ft | 3 kts | 205° |
| 2026-05-04 15:00 | 50.04733 | 8.56991 | 361 ft | 6 kts | 204° |
| 2026-05-04 15:00 | 50.04695 | 8.56964 | 360 ft | 6 kts | 205° |
| 2026-05-04 15:00 | 50.04661 | 8.56939 | 359 ft | 5 kts | 205° |
| 2026-05-04 15:01 | 50.04637 | 8.56924 | 360 ft | 0 kts | 201° |
| 2026-05-04 15:02 | 50.04636 | 8.56923 | 355 ft | 1 kts | 200° |
| 2026-05-04 15:02 | 50.04601 | 8.56908 | 355 ft | 9 kts | 193° |
| 2026-05-04 15:03 | 50.04542 | 8.56887 | 358 ft | 9 kts | 193° |
| 2026-05-04 15:03 | 50.04484 | 8.56866 | 360 ft | 8 kts | 195° |
| 2026-05-04 15:03 | 50.04446 | 8.56806 | 366 ft | 8 kts | 249° |
| 2026-05-04 15:03 | 50.04424 | 8.56711 | 361 ft | 10 kts | 249° |
| 2026-05-04 15:04 | 50.04395 | 8.56593 | 360 ft | 13 kts | 249° |
| 2026-05-04 15:04 | 50.04363 | 8.56457 | 360 ft | 14 kts | 250° |
| 2026-05-04 15:04 | 50.04329 | 8.56317 | 356 ft | 14 kts | 249° |
| 2026-05-04 15:04 | 50.04297 | 8.56180 | 359 ft | 13 kts | 250° |
| 2026-05-04 15:05 | 50.04265 | 8.56045 | 357 ft | 14 kts | 249° |
| 2026-05-04 15:05 | 50.04227 | 8.55886 | 356 ft | 17 kts | 249° |
| 2026-05-04 15:05 | 50.04181 | 8.55695 | 354 ft | 20 kts | 249° |
| 2026-05-04 15:05 | 50.04133 | 8.55497 | 354 ft | 20 kts | 249° |
| 2026-05-04 15:06 | 50.04086 | 8.55299 | 353 ft | 19 kts | 250° |
| 2026-05-04 15:06 | 50.04040 | 8.55107 | 353 ft | 19 kts | 249° |
| 2026-05-04 15:06 | 50.03996 | 8.54922 | 357 ft | 18 kts | 250° |
| 2026-05-04 15:07 | 50.03904 | 8.54538 | 354 ft | 19 kts | 249° |
| 2026-05-04 15:07 | 50.03850 | 8.54348 | 350 ft | 19 kts | 236° |
| 2026-05-04 15:07 | 50.03786 | 8.54169 | 348 ft | 19 kts | 250° |
| 2026-05-04 15:07 | 50.03742 | 8.53983 | 350 ft | 18 kts | 249° |
| 2026-05-04 15:08 | 50.03699 | 8.53804 | 345 ft | 17 kts | 249° |
| 2026-05-04 15:08 | 50.03657 | 8.53628 | 339 ft | 17 kts | 248° |
| 2026-05-04 15:08 | 50.03614 | 8.53459 | 338 ft | 17 kts | 249° |
| 2026-05-04 15:08 | 50.03575 | 8.53294 | 335 ft | 16 kts | 249° |
| 2026-05-04 15:09 | 50.03537 | 8.53135 | 337 ft | 15 kts | 250° |
| 2026-05-04 15:09 | 50.03501 | 8.52986 | 333 ft | 15 kts | 250° |
| 2026-05-04 15:09 | 50.03463 | 8.52842 | 336 ft | 14 kts | 246° |
| 2026-05-04 15:10 | 50.03364 | 8.52598 | 333 ft | 14 kts | 195° |
| 2026-05-04 15:10 | 50.03230 | 8.52595 | 335 ft | 39 kts | 179° |
| 2026-05-04 15:10 | 50.01720 | 8.52613 | 390 ft | 164 kts | 180° |
| 2026-05-04 15:11 | 50.00535 | 8.52645 | 1031 ft | 171 kts | 180° |
| 2026-05-04 15:11 | 49.99359 | 8.52714 | 1909 ft | 172 kts | 181° |
| 2026-05-04 15:11 | 49.98107 | 8.52793 | 2402 ft | 194 kts | 181° |
| 2026-05-04 15:11 | 49.96673 | 8.52885 | 2645 ft | 219 kts | 180° |
| 2026-05-04 15:12 | 49.95093 | 8.52992 | 3049 ft | 231 kts | 180° |
| 2026-05-04 15:12 | 49.93468 | 8.53104 | 3679 ft | 235 kts | 180° |
| 2026-05-04 15:12 | 49.91835 | 8.53219 | 4554 ft | 234 kts | 180° |
| 2026-05-04 15:12 | 49.90213 | 8.53331 | 5460 ft | 230 kts | 179° |
| 2026-05-04 15:13 | 49.88634 | 8.53439 | 6387 ft | 227 kts | 178° |
| 2026-05-04 15:13 | 49.87062 | 8.53546 | 7165 ft | 226 kts | 178° |
| 2026-05-04 15:13 | 49.85479 | 8.53654 | 7896 ft | 229 kts | 178° |
| 2026-05-04 15:13 | 49.83884 | 8.53763 | 8632 ft | 231 kts | 179° |
| 2026-05-04 15:14 | 49.82274 | 8.53872 | 9391 ft | 232 kts | 179° |
| 2026-05-04 15:14 | 49.80658 | 8.53981 | 10090 ft | 233 kts | 179° |
| 2026-05-04 15:14 | 49.79025 | 8.54091 | 10679 ft | 237 kts | 179° |
| 2026-05-04 15:14 | 49.77373 | 8.54151 | 11174 ft | 247 kts | 182° |
| 2026-05-04 15:15 | 49.75568 | 8.53995 | 11354 ft | 269 kts | 186° |
| 2026-05-04 15:15 | 49.73624 | 8.53707 | 11527 ft | 292 kts | 187° |
| 2026-05-04 15:15 | 49.71528 | 8.53376 | 11690 ft | 313 kts | 187° |
| 2026-05-04 15:16 | 49.66927 | 8.52685 | 12057 ft | 349 kts | 186° |
| 2026-05-04 15:16 | 49.64488 | 8.52342 | 12538 ft | 357 kts | 186° |
| 2026-05-04 15:16 | 49.60353 | 8.51780 | 13558 ft | 363 kts | 186° |
| 2026-05-04 15:17 | 49.57830 | 8.51443 | 14130 ft | 367 kts | 186° |
| 2026-05-04 15:17 | 49.52685 | 8.50762 | 15405 ft | 373 kts | 186° |
| 2026-05-04 15:17 | 49.50091 | 8.50420 | 16083 ft | 376 kts | 187° |
| 2026-05-04 15:18 | 49.47473 | 8.50074 | 16723 ft | 379 kts | 187° |
| 2026-05-04 15:18 | 49.44825 | 8.49725 | 17343 ft | 383 kts | 187° |
| 2026-05-04 15:18 | 49.42155 | 8.49373 | 17995 ft | 387 kts | 187° |
| 2026-05-04 15:19 | 49.36736 | 8.48660 | 19137 ft | 393 kts | 187° |
| 2026-05-04 15:19 | 49.34035 | 8.48306 | 19730 ft | 396 kts | 187° |
| 2026-05-04 15:19 | 49.28470 | 8.47579 | 20925 ft | 402 kts | 187° |
| 2026-05-04 15:20 | 49.25706 | 8.47228 | 21432 ft | 405 kts | 187° |
| 2026-05-04 15:20 | 49.22889 | 8.46873 | 21938 ft | 408 kts | 187° |
| 2026-05-04 15:20 | 49.20047 | 8.46516 | 22425 ft | 411 kts | 187° |
| 2026-05-04 15:20 | 49.17186 | 8.46156 | 22893 ft | 414 kts | 187° |
| 2026-05-04 15:21 | 49.14300 | 8.45793 | 23358 ft | 417 kts | 187° |
| 2026-05-04 15:21 | 49.11405 | 8.45451 | 23794 ft | 419 kts | 186° |
| 2026-05-04 15:21 | 49.05556 | 8.45015 | 24733 ft | 420 kts | 184° |
| 2026-05-04 15:22 | 49.02632 | 8.44847 | 25138 ft | 422 kts | 184° |
| 2026-05-04 15:22 | 48.99690 | 8.44677 | 25524 ft | 424 kts | 184° |
| 2026-05-04 15:22 | 48.93772 | 8.44306 | 26308 ft | 427 kts | 185° |
| 2026-05-04 15:23 | 48.90797 | 8.44107 | 26672 ft | 429 kts | 185° |
| 2026-05-04 15:23 | 48.87849 | 8.43905 | 27024 ft | 431 kts | 185° |
| 2026-05-04 15:23 | 48.84847 | 8.43697 | 27434 ft | 431 kts | 185° |
| 2026-05-04 15:23 | 48.81858 | 8.43490 | 27975 ft | 428 kts | 185° |
| 2026-05-04 15:24 | 48.75961 | 8.43084 | 29194 ft | 421 kts | 185° |
| 2026-05-04 15:24 | 48.70117 | 8.42679 | 29982 ft | 422 kts | 185° |
| 2026-05-04 15:25 | 48.64220 | 8.42271 | 29963 ft | 424 kts | 185° |
| 2026-05-04 15:26 | 48.55448 | 8.41671 | 29977 ft | 420 kts | 185° |
| 2026-05-04 15:26 | 48.46681 | 8.41071 | 29968 ft | 421 kts | 185° |
| 2026-05-04 15:27 | 48.37938 | 8.40476 | 29969 ft | 421 kts | 185° |
| 2026-05-04 15:28 | 48.29119 | 8.39878 | 29976 ft | 421 kts | 185° |
| 2026-05-04 15:29 | 48.20366 | 8.39285 | 29974 ft | 421 kts | 185° |
| 2026-05-04 15:30 | 47.99954 | 8.37912 | 29976 ft | 418 kts | 185° |
| 2026-05-04 15:31 | 47.91248 | 8.37330 | 29982 ft | 417 kts | 185° |
| 2026-05-04 15:32 | 47.77800 | 8.36434 | 29978 ft | 417 kts | 184° |
| 2026-05-04 15:34 | 47.63367 | 8.35477 | 29976 ft | 418 kts | 184° |
| 2026-05-04 15:34 | 47.54652 | 8.34903 | 29971 ft | 418 kts | 184° |
| 2026-05-04 15:35 | 47.45923 | 8.34329 | 29972 ft | 419 kts | 184° |
| 2026-05-04 15:36 | 47.37208 | 8.33758 | 29971 ft | 419 kts | 184° |
| 2026-05-04 15:36 | 47.31349 | 8.33376 | 29965 ft | 419 kts | 184° |
| 2026-05-04 15:37 | 47.25518 | 8.33480 | 29991 ft | 420 kts | 178° |
| 2026-05-04 15:37 | 47.19681 | 8.34324 | 29992 ft | 421 kts | 175° |
| 2026-05-04 15:38 | 47.13858 | 8.35394 | 30000 ft | 421 kts | 175° |
| 2026-05-04 15:38 | 47.08029 | 8.36324 | 29985 ft | 422 kts | 176° |
| 2026-05-04 15:39 | 47.02176 | 8.37149 | 29995 ft | 422 kts | 176° |
| 2026-05-04 15:40 | 46.93434 | 8.38330 | 29972 ft | 423 kts | 176° |
| 2026-05-04 15:40 | 46.87584 | 8.39120 | 30010 ft | 422 kts | 176° |
| 2026-05-04 15:41 | 46.81717 | 8.39914 | 29982 ft | 424 kts | 176° |
| 2026-05-04 15:41 | 46.75826 | 8.40709 | 29994 ft | 426 kts | 176° |
| 2026-05-04 15:42 | 46.69911 | 8.41506 | 30035 ft | 427 kts | 176° |
| 2026-05-04 15:42 | 46.64000 | 8.42302 | 30019 ft | 426 kts | 176° |
| 2026-05-04 15:43 | 46.58086 | 8.43096 | 30056 ft | 426 kts | 176° |
| 2026-05-04 15:43 | 46.52191 | 8.43886 | 30065 ft | 425 kts | 176° |
| 2026-05-04 15:44 | 46.46298 | 8.44673 | 30085 ft | 425 kts | 176° |
| 2026-05-04 15:44 | 46.40412 | 8.45457 | 30096 ft | 425 kts | 176° |
| 2026-05-04 15:45 | 46.34566 | 8.46235 | 30090 ft | 425 kts | 176° |
| 2026-05-04 15:45 | 46.28671 | 8.47018 | 30087 ft | 425 kts | 176° |
| 2026-05-04 15:46 | 46.22792 | 8.47845 | 30095 ft | 423 kts | 176° |
| 2026-05-04 15:46 | 46.16929 | 8.48728 | 30104 ft | 423 kts | 176° |
| 2026-05-04 15:47 | 46.11046 | 8.49524 | 30085 ft | 424 kts | 179° |
| 2026-05-04 15:47 | 46.05364 | 8.49253 | 30087 ft | 423 kts | 187° |
| 2026-05-04 15:48 | 45.99549 | 8.47897 | 30106 ft | 423 kts | 191° |
| 2026-05-04 15:48 | 45.96653 | 8.47148 | 29977 ft | 425 kts | 191° |